sensor_id;sensor_type;location;lat;lon;timestamp;P1;durP1;ratioP1;P2;durP2;ratioP2
3447;SDS011;1738;49.500;17.736;2022-09-09T00:02:01;7.60;;;2.40;;
3447;SDS011;1738;49.500;17.736;2022-09-09T00:04:30;10.30;;;3.97;;
3447;SDS011;1738;49.500;17.736;2022-09-09T00:07:03;4.17;;;2.83;;
3447;SDS011;1738;49.500;17.736;2022-09-09T00:09:27;5.57;;;3.43;;
3447;SDS011;1738;49.500;17.736;2022-09-09T00:11:54;5.30;;;3.27;;
3447;SDS011;1738;49.500;17.736;2022-09-09T00:16:51;9.60;;;4.27;;
3447;SDS011;1738;49.500;17.736;2022-09-09T00:19:24;9.13;;;5.10;;
3447;SDS011;1738;49.500;17.736;2022-09-09T00:21:55;9.15;;;5.40;;
3447;SDS011;1738;49.500;17.736;2022-09-09T00:24:23;6.20;;;4.80;;
3447;SDS011;1738;49.500;17.736;2022-09-09T00:26:51;9.00;;;5.30;;
3447;SDS011;1738;49.500;17.736;2022-09-09T00:29:22;6.67;;;5.00;;
3447;SDS011;1738;49.500;17.736;2022-09-09T00:31:45;7.73;;;5.23;;
3447;SDS011;1738;49.500;17.736;2022-09-09T00:34:13;10.88;;;7.00;;
3447;SDS011;1738;49.500;17.736;2022-09-09T00:36:38;5.70;;;4.93;;
3447;SDS011;1738;49.500;17.736;2022-09-09T00:39:03;7.20;;;6.07;;
3447;SDS011;1738;49.500;17.736;2022-09-09T00:41:40;5.80;;;5.03;;
3447;SDS011;1738;49.500;17.736;2022-09-09T00:44:03;9.33;;;5.70;;
3447;SDS011;1738;49.500;17.736;2022-09-09T00:46:35;7.57;;;4.93;;
3447;SDS011;1738;49.500;17.736;2022-09-09T00:49:05;9.43;;;6.50;;
3447;SDS011;1738;49.500;17.736;2022-09-09T00:51:35;9.10;;;6.05;;
3447;SDS011;1738;49.500;17.736;2022-09-09T00:54:03;12.33;;;7.33;;
3447;SDS011;1738;49.500;17.736;2022-09-09T00:56:25;8.63;;;6.05;;
3447;SDS011;1738;49.500;17.736;2022-09-09T00:58:55;16.73;;;7.90;;
3447;SDS011;1738;49.500;17.736;2022-09-09T01:01:16;7.93;;;6.50;;
3447;SDS011;1738;49.500;17.736;2022-09-09T01:03:48;10.57;;;6.97;;
3447;SDS011;1738;49.500;17.736;2022-09-09T01:06:18;12.77;;;7.70;;
3447;SDS011;1738;49.500;17.736;2022-09-09T01:11:17;9.17;;;7.73;;
3447;SDS011;1738;49.500;17.736;2022-09-09T01:13:41;10.43;;;8.70;;
3447;SDS011;1738;49.500;17.736;2022-09-09T01:16:08;14.90;;;9.80;;
3447;SDS011;1738;49.500;17.736;2022-09-09T01:18:34;11.33;;;8.47;;
3447;SDS011;1738;49.500;17.736;2022-09-09T01:21:06;20.53;;;10.53;;
3447;SDS011;1738;49.500;17.736;2022-09-09T01:23:35;11.20;;;9.50;;
3447;SDS011;1738;49.500;17.736;2022-09-09T01:28:27;54.73;;;13.97;;
3447;SDS011;1738;49.500;17.736;2022-09-09T01:30:53;16.23;;;9.43;;
3447;SDS011;1738;49.500;17.736;2022-09-09T01:33:19;29.90;;;10.53;;
3447;SDS011;1738;49.500;17.736;2022-09-09T01:35:47;13.20;;;11.20;;
3447;SDS011;1738;49.500;17.736;2022-09-09T01:38:11;17.20;;;11.50;;
3447;SDS011;1738;49.500;17.736;2022-09-09T01:40:37;16.87;;;12.10;;
3447;SDS011;1738;49.500;17.736;2022-09-09T01:43:02;17.40;;;13.30;;
3447;SDS011;1738;49.500;17.736;2022-09-09T01:45:28;15.40;;;12.77;;
3447;SDS011;1738;49.500;17.736;2022-09-09T01:47:54;16.97;;;13.37;;
3447;SDS011;1738;49.500;17.736;2022-09-09T01:50:20;17.20;;;13.37;;
3447;SDS011;1738;49.500;17.736;2022-09-09T01:52:46;28.90;;;14.10;;
3447;SDS011;1738;49.500;17.736;2022-09-09T01:55:12;18.43;;;13.13;;
3447;SDS011;1738;49.500;17.736;2022-09-09T01:57:44;15.43;;;12.23;;
3447;SDS011;1738;49.500;17.736;2022-09-09T02:00:07;16.10;;;11.37;;
3447;SDS011;1738;49.500;17.736;2022-09-09T02:02:36;16.33;;;11.00;;
3447;SDS011;1738;49.500;17.736;2022-09-09T02:05:09;18.20;;;12.70;;
3447;SDS011;1738;49.500;17.736;2022-09-09T02:07:38;17.23;;;12.05;;
3447;SDS011;1738;49.500;17.736;2022-09-09T02:10:02;16.73;;;12.10;;
3447;SDS011;1738;49.500;17.736;2022-09-09T02:12:27;17.13;;;12.20;;
3447;SDS011;1738;49.500;17.736;2022-09-09T02:14:55;14.30;;;10.80;;
3447;SDS011;1738;49.500;17.736;2022-09-09T02:17:20;15.57;;;11.27;;
3447;SDS011;1738;49.500;17.736;2022-09-09T02:19:45;13.20;;;11.40;;
3447;SDS011;1738;49.500;17.736;2022-09-09T02:22:10;102.73;;;15.30;;
3447;SDS011;1738;49.500;17.736;2022-09-09T02:24:37;17.40;;;11.33;;
3447;SDS011;1738;49.500;17.736;2022-09-09T02:27:02;21.63;;;11.67;;
3447;SDS011;1738;49.500;17.736;2022-09-09T02:29:29;12.23;;;9.00;;
3447;SDS011;1738;49.500;17.736;2022-09-09T02:31:54;13.53;;;10.13;;
3447;SDS011;1738;49.500;17.736;2022-09-09T02:34:20;10.37;;;8.30;;
3447;SDS011;1738;49.500;17.736;2022-09-09T02:36:45;15.97;;;10.17;;
3447;SDS011;1738;49.500;17.736;2022-09-09T02:39:11;30.90;;;10.30;;
3447;SDS011;1738;49.500;17.736;2022-09-09T02:41:38;185.77;;;17.80;;
3447;SDS011;1738;49.500;17.736;2022-09-09T02:44:11;23.10;;;8.70;;
3447;SDS011;1738;49.500;17.736;2022-09-09T02:46:40;27.07;;;8.83;;
3447;SDS011;1738;49.500;17.736;2022-09-09T02:49:04;13.95;;;8.70;;
3447;SDS011;1738;49.500;17.736;2022-09-09T02:51:32;13.47;;;9.33;;
3447;SDS011;1738;49.500;17.736;2022-09-09T02:54:04;18.00;;;11.20;;
3447;SDS011;1738;49.500;17.736;2022-09-09T02:56:25;29.07;;;18.00;;
3447;SDS011;1738;49.500;17.736;2022-09-09T02:58:51;26.90;;;17.47;;
3447;SDS011;1738;49.500;17.736;2022-09-09T03:01:17;30.87;;;17.37;;
3447;SDS011;1738;49.500;17.736;2022-09-09T03:03:44;26.20;;;18.07;;
3447;SDS011;1738;49.500;17.736;2022-09-09T03:06:09;32.00;;;17.77;;
3447;SDS011;1738;49.500;17.736;2022-09-09T03:08:35;28.10;;;17.07;;
3447;SDS011;1738;49.500;17.736;2022-09-09T03:11:01;40.60;;;21.20;;
3447;SDS011;1738;49.500;17.736;2022-09-09T03:13:27;31.10;;;19.50;;
3447;SDS011;1738;49.500;17.736;2022-09-09T03:15:53;33.57;;;19.77;;
3447;SDS011;1738;49.500;17.736;2022-09-09T03:18:19;36.97;;;20.00;;
3447;SDS011;1738;49.500;17.736;2022-09-09T03:20:45;53.67;;;20.37;;
3447;SDS011;1738;49.500;17.736;2022-09-09T03:23:10;47.23;;;22.27;;
3447;SDS011;1738;49.500;17.736;2022-09-09T03:25:36;66.23;;;21.30;;
3447;SDS011;1738;49.500;17.736;2022-09-09T03:28:02;60.13;;;22.13;;
3447;SDS011;1738;49.500;17.736;2022-09-09T03:30:28;74.30;;;23.43;;
3447;SDS011;1738;49.500;17.736;2022-09-09T03:32:54;121.62;;;25.10;;
3447;SDS011;1738;49.500;17.736;2022-09-09T03:35:20;61.60;;;22.13;;
3447;SDS011;1738;49.500;17.736;2022-09-09T03:37:45;49.50;;;21.20;;
3447;SDS011;1738;49.500;17.736;2022-09-09T03:40:11;44.07;;;21.67;;
3447;SDS011;1738;49.500;17.736;2022-09-09T03:42:37;37.03;;;20.60;;
3447;SDS011;1738;49.500;17.736;2022-09-09T03:45:04;40.97;;;21.47;;
3447;SDS011;1738;49.500;17.736;2022-09-09T03:47:29;51.20;;;21.53;;
3447;SDS011;1738;49.500;17.736;2022-09-09T03:49:56;48.83;;;20.33;;
3447;SDS011;1738;49.500;17.736;2022-09-09T03:52:22;64.20;;;20.83;;
3447;SDS011;1738;49.500;17.736;2022-09-09T03:54:48;37.00;;;18.87;;
3447;SDS011;1738;49.500;17.736;2022-09-09T03:57:13;49.23;;;20.60;;
3447;SDS011;1738;49.500;17.736;2022-09-09T03:59:39;57.15;;;20.23;;
3447;SDS011;1738;49.500;17.736;2022-09-09T04:02:05;95.63;;;20.10;;
3447;SDS011;1738;49.500;17.736;2022-09-09T04:04:31;95.33;;;21.27;;
3447;SDS011;1738;49.500;17.736;2022-09-09T04:06:57;79.17;;;18.73;;
3447;SDS011;1738;49.500;17.736;2022-09-09T04:09:23;65.80;;;18.80;;
3447;SDS011;1738;49.500;17.736;2022-09-09T04:11:49;61.27;;;16.20;;
3447;SDS011;1738;49.500;17.736;2022-09-09T04:14:15;103.60;;;20.30;;
3447;SDS011;1738;49.500;17.736;2022-09-09T04:16:40;112.67;;;20.70;;
3447;SDS011;1738;49.500;17.736;2022-09-09T04:19:06;80.70;;;17.43;;
3447;SDS011;1738;49.500;17.736;2022-09-09T04:21:32;54.33;;;15.40;;
3447;SDS011;1738;49.500;17.736;2022-09-09T04:23:58;105.63;;;18.27;;
3447;SDS011;1738;49.500;17.736;2022-09-09T04:26:24;106.10;;;17.97;;
3447;SDS011;1738;49.500;17.736;2022-09-09T04:28:49;77.00;;;16.55;;
3447;SDS011;1738;49.500;17.736;2022-09-09T04:31:17;103.53;;;16.10;;
3447;SDS011;1738;49.500;17.736;2022-09-09T04:33:41;120.53;;;19.60;;
3447;SDS011;1738;49.500;17.736;2022-09-09T04:36:07;95.87;;;16.93;;
3447;SDS011;1738;49.500;17.736;2022-09-09T04:38:33;99.27;;;19.17;;
3447;SDS011;1738;49.500;17.736;2022-09-09T04:40:59;97.57;;;17.80;;
3447;SDS011;1738;49.500;17.736;2022-09-09T04:43:25;82.30;;;16.80;;
3447;SDS011;1738;49.500;17.736;2022-09-09T04:45:52;83.77;;;16.70;;
3447;SDS011;1738;49.500;17.736;2022-09-09T04:48:18;89.30;;;16.40;;
3447;SDS011;1738;49.500;17.736;2022-09-09T04:50:52;54.42;;;15.20;;
3447;SDS011;1738;49.500;17.736;2022-09-09T04:53:10;84.93;;;19.50;;
3447;SDS011;1738;49.500;17.736;2022-09-09T04:55:36;86.97;;;17.40;;
3447;SDS011;1738;49.500;17.736;2022-09-09T04:58:05;107.40;;;17.90;;
3447;SDS011;1738;49.500;17.736;2022-09-09T05:00:30;115.60;;;16.93;;
3447;SDS011;1738;49.500;17.736;2022-09-09T05:02:56;116.17;;;14.57;;
3447;SDS011;1738;49.500;17.736;2022-09-09T05:05:22;101.70;;;15.40;;
3447;SDS011;1738;49.500;17.736;2022-09-09T05:07:48;114.23;;;15.93;;
3447;SDS011;1738;49.500;17.736;2022-09-09T05:10:14;71.60;;;14.70;;
3447;SDS011;1738;49.500;17.736;2022-09-09T05:12:40;110.93;;;16.57;;
3447;SDS011;1738;49.500;17.736;2022-09-09T05:15:06;110.90;;;14.77;;
3447;SDS011;1738;49.500;17.736;2022-09-09T05:17:32;114.83;;;15.00;;
3447;SDS011;1738;49.500;17.736;2022-09-09T05:19:58;96.40;;;16.60;;
3447;SDS011;1738;49.500;17.736;2022-09-09T05:22:23;104.17;;;14.87;;
3447;SDS011;1738;49.500;17.736;2022-09-09T05:24:49;86.63;;;15.23;;
3447;SDS011;1738;49.500;17.736;2022-09-09T05:27:17;110.15;;;15.30;;
3447;SDS011;1738;49.500;17.736;2022-09-09T05:29:42;72.57;;;14.97;;
3447;SDS011;1738;49.500;17.736;2022-09-09T05:32:08;98.43;;;15.60;;
3447;SDS011;1738;49.500;17.736;2022-09-09T05:34:34;89.97;;;15.70;;
3447;SDS011;1738;49.500;17.736;2022-09-09T05:37:00;58.03;;;13.70;;
3447;SDS011;1738;49.500;17.736;2022-09-09T05:39:26;60.27;;;14.43;;
3447;SDS011;1738;49.500;17.736;2022-09-09T05:41:52;81.87;;;15.20;;
3447;SDS011;1738;49.500;17.736;2022-09-09T05:44:17;87.77;;;15.60;;
3447;SDS011;1738;49.500;17.736;2022-09-09T05:46:43;72.70;;;17.00;;
3447;SDS011;1738;49.500;17.736;2022-09-09T05:49:09;54.17;;;15.03;;
3447;SDS011;1738;49.500;17.736;2022-09-09T05:51:35;29.37;;;14.37;;
3447;SDS011;1738;49.500;17.736;2022-09-09T05:54:01;91.33;;;18.40;;
3447;SDS011;1738;49.500;17.736;2022-09-09T05:56:27;67.27;;;17.07;;
3447;SDS011;1738;49.500;17.736;2022-09-09T05:58:53;43.30;;;15.27;;
3447;SDS011;1738;49.500;17.736;2022-09-09T06:01:20;69.33;;;16.50;;
3447;SDS011;1738;49.500;17.736;2022-09-09T06:03:46;62.30;;;15.90;;
3447;SDS011;1738;49.500;17.736;2022-09-09T06:06:12;85.97;;;20.90;;
3447;SDS011;1738;49.500;17.736;2022-09-09T06:08:38;62.60;;;19.60;;
3447;SDS011;1738;49.500;17.736;2022-09-09T06:11:04;56.90;;;15.70;;
3447;SDS011;1738;49.500;17.736;2022-09-09T06:13:29;62.67;;;17.50;;
3447;SDS011;1738;49.500;17.736;2022-09-09T06:15:55;39.80;;;16.77;;
3447;SDS011;1738;49.500;17.736;2022-09-09T06:18:20;52.33;;;16.73;;
3447;SDS011;1738;49.500;17.736;2022-09-09T06:20:53;88.83;;;17.67;;
3447;SDS011;1738;49.500;17.736;2022-09-09T06:23:18;68.63;;;17.00;;
3447;SDS011;1738;49.500;17.736;2022-09-09T06:25:44;55.83;;;17.30;;
3447;SDS011;1738;49.500;17.736;2022-09-09T06:28:10;92.20;;;18.47;;
3447;SDS011;1738;49.500;17.736;2022-09-09T06:30:36;97.43;;;20.80;;
3447;SDS011;1738;49.500;17.736;2022-09-09T06:33:02;97.83;;;20.67;;
3447;SDS011;1738;49.500;17.736;2022-09-09T06:35:27;92.78;;;22.30;;
3447;SDS011;1738;49.500;17.736;2022-09-09T06:37:53;77.13;;;22.80;;
3447;SDS011;1738;49.500;17.736;2022-09-09T06:40:19;85.17;;;22.23;;
3447;SDS011;1738;49.500;17.736;2022-09-09T06:42:45;49.93;;;21.37;;
3447;SDS011;1738;49.500;17.736;2022-09-09T06:45:11;79.10;;;24.60;;
3447;SDS011;1738;49.500;17.736;2022-09-09T06:47:37;52.30;;;22.70;;
3447;SDS011;1738;49.500;17.736;2022-09-09T06:50:03;51.73;;;22.87;;
3447;SDS011;1738;49.500;17.736;2022-09-09T06:52:28;59.23;;;24.17;;
3447;SDS011;1738;49.500;17.736;2022-09-09T06:54:54;62.47;;;22.60;;
3447;SDS011;1738;49.500;17.736;2022-09-09T06:57:20;60.37;;;23.90;;
3447;SDS011;1738;49.500;17.736;2022-09-09T06:59:46;65.63;;;27.50;;
3447;SDS011;1738;49.500;17.736;2022-09-09T07:02:12;60.80;;;27.80;;
3447;SDS011;1738;49.500;17.736;2022-09-09T07:04:38;70.23;;;27.77;;
3447;SDS011;1738;49.500;17.736;2022-09-09T07:07:04;63.80;;;28.00;;
3447;SDS011;1738;49.500;17.736;2022-09-09T07:09:30;76.47;;;30.70;;
3447;SDS011;1738;49.500;17.736;2022-09-09T07:11:56;67.03;;;30.70;;
3447;SDS011;1738;49.500;17.736;2022-09-09T07:14:22;85.90;;;33.23;;
3447;SDS011;1738;49.500;17.736;2022-09-09T07:16:47;70.20;;;31.33;;
3447;SDS011;1738;49.500;17.736;2022-09-09T07:19:13;81.50;;;31.53;;
3447;SDS011;1738;49.500;17.736;2022-09-09T07:21:39;67.53;;;30.73;;
3447;SDS011;1738;49.500;17.736;2022-09-09T07:24:05;62.07;;;26.93;;
3447;SDS011;1738;49.500;17.736;2022-09-09T07:26:31;67.43;;;29.17;;
3447;SDS011;1738;49.500;17.736;2022-09-09T07:28:57;57.73;;;27.93;;
3447;SDS011;1738;49.500;17.736;2022-09-09T07:31:24;54.90;;;26.10;;
3447;SDS011;1738;49.500;17.736;2022-09-09T07:33:50;52.87;;;26.50;;
3447;SDS011;1738;49.500;17.736;2022-09-09T07:36:16;49.73;;;24.00;;
3447;SDS011;1738;49.500;17.736;2022-09-09T07:38:45;40.63;;;23.10;;
3447;SDS011;1738;49.500;17.736;2022-09-09T07:41:11;40.80;;;22.27;;
3447;SDS011;1738;49.500;17.736;2022-09-09T07:43:38;43.83;;;24.20;;
3447;SDS011;1738;49.500;17.736;2022-09-09T07:46:03;43.27;;;22.90;;
3447;SDS011;1738;49.500;17.736;2022-09-09T07:48:29;31.03;;;20.10;;
3447;SDS011;1738;49.500;17.736;2022-09-09T07:51:04;30.47;;;19.90;;
3447;SDS011;1738;49.500;17.736;2022-09-09T07:53:30;37.03;;;22.43;;
3447;SDS011;1738;49.500;17.736;2022-09-09T07:56:01;33.83;;;20.67;;
3447;SDS011;1738;49.500;17.736;2022-09-09T07:58:22;28.38;;;18.67;;
3447;SDS011;1738;49.500;17.736;2022-09-09T08:00:47;27.27;;;18.63;;
3447;SDS011;1738;49.500;17.736;2022-09-09T08:03:14;24.00;;;17.90;;
3447;SDS011;1738;49.500;17.736;2022-09-09T08:05:40;26.67;;;19.00;;
3447;SDS011;1738;49.500;17.736;2022-09-09T08:08:05;27.70;;;17.43;;
3447;SDS011;1738;49.500;17.736;2022-09-09T08:10:31;26.13;;;18.40;;
3447;SDS011;1738;49.500;17.736;2022-09-09T08:12:57;23.33;;;17.70;;
3447;SDS011;1738;49.500;17.736;2022-09-09T08:15:23;23.87;;;17.63;;
3447;SDS011;1738;49.500;17.736;2022-09-09T08:17:49;26.70;;;17.63;;
3447;SDS011;1738;49.500;17.736;2022-09-09T08:20:15;24.70;;;17.40;;
3447;SDS011;1738;49.500;17.736;2022-09-09T08:22:41;25.10;;;18.50;;
3447;SDS011;1738;49.500;17.736;2022-09-09T08:25:06;24.37;;;19.03;;
3447;SDS011;1738;49.500;17.736;2022-09-09T08:27:32;22.80;;;16.93;;
3447;SDS011;1738;49.500;17.736;2022-09-09T08:29:58;20.70;;;17.47;;
3447;SDS011;1738;49.500;17.736;2022-09-09T08:32:24;21.77;;;16.83;;
3447;SDS011;1738;49.500;17.736;2022-09-09T08:34:50;23.67;;;18.10;;
3447;SDS011;1738;49.500;17.736;2022-09-09T08:37:16;22.00;;;17.03;;
3447;SDS011;1738;49.500;17.736;2022-09-09T08:39:42;26.63;;;18.10;;
3447;SDS011;1738;49.500;17.736;2022-09-09T08:44:58;24.00;;;17.80;;
3447;SDS011;1738;49.500;17.736;2022-09-09T08:47:24;20.10;;;16.63;;
3447;SDS011;1738;49.500;17.736;2022-09-09T08:52:39;23.57;;;18.57;;
3447;SDS011;1738;49.500;17.736;2022-09-09T08:55:12;25.13;;;17.37;;
3447;SDS011;1738;49.500;17.736;2022-09-09T08:57:31;21.73;;;17.80;;
3447;SDS011;1738;49.500;17.736;2022-09-09T08:59:57;23.73;;;18.23;;
3447;SDS011;1738;49.500;17.736;2022-09-09T09:02:26;22.33;;;17.43;;
3447;SDS011;1738;49.500;17.736;2022-09-09T09:04:56;21.03;;;16.57;;
3447;SDS011;1738;49.500;17.736;2022-09-09T09:10:26;21.23;;;16.33;;
3447;SDS011;1738;49.500;17.736;2022-09-09T09:12:40;21.17;;;16.83;;
3447;SDS011;1738;49.500;17.736;2022-09-09T09:14:58;18.93;;;16.00;;
3447;SDS011;1738;49.500;17.736;2022-09-09T09:17:24;25.20;;;18.50;;
3447;SDS011;1738;49.500;17.736;2022-09-09T09:19:49;24.50;;;21.30;;
3447;SDS011;1738;49.500;17.736;2022-09-09T09:22:18;21.90;;;18.00;;
3447;SDS011;1738;49.500;17.736;2022-09-09T09:24:45;22.40;;;17.30;;
3447;SDS011;1738;49.500;17.736;2022-09-09T09:27:12;22.80;;;18.20;;
3447;SDS011;1738;49.500;17.736;2022-09-09T09:29:37;25.23;;;21.13;;
3447;SDS011;1738;49.500;17.736;2022-09-09T09:32:03;25.33;;;18.63;;
3447;SDS011;1738;49.500;17.736;2022-09-09T09:34:29;19.90;;;16.43;;
3447;SDS011;1738;49.500;17.736;2022-09-09T09:36:56;24.67;;;18.53;;
3447;SDS011;1738;49.500;17.736;2022-09-09T09:39:22;21.70;;;17.97;;
3447;SDS011;1738;49.500;17.736;2022-09-09T09:41:47;18.90;;;16.37;;
3447;SDS011;1738;49.500;17.736;2022-09-09T09:44:27;21.73;;;18.13;;
3447;SDS011;1738;49.500;17.736;2022-09-09T09:47:05;18.10;;;15.03;;
3447;SDS011;1738;49.500;17.736;2022-09-09T09:49:20;18.00;;;14.90;;
3447;SDS011;1738;49.500;17.736;2022-09-09T09:51:45;19.70;;;15.30;;
3447;SDS011;1738;49.500;17.736;2022-09-09T09:54:14;17.90;;;15.23;;
3447;SDS011;1738;49.500;17.736;2022-09-09T09:56:39;16.63;;;13.60;;
3447;SDS011;1738;49.500;17.736;2022-09-09T09:59:05;12.13;;;10.87;;
3447;SDS011;1738;49.500;17.736;2022-09-09T10:01:31;15.90;;;10.13;;
3447;SDS011;1738;49.500;17.736;2022-09-09T10:03:57;11.40;;;9.43;;
3447;SDS011;1738;49.500;17.736;2022-09-09T10:06:29;10.80;;;9.30;;
3447;SDS011;1738;49.500;17.736;2022-09-09T10:08:54;11.50;;;7.97;;
3447;SDS011;1738;49.500;17.736;2022-09-09T10:11:24;10.43;;;8.20;;
3447;SDS011;1738;49.500;17.736;2022-09-09T10:13:54;14.60;;;9.60;;
3447;SDS011;1738;49.500;17.736;2022-09-09T10:16:57;8.90;;;7.50;;
3447;SDS011;1738;49.500;17.736;2022-09-09T10:19:03;9.50;;;8.27;;
3447;SDS011;1738;49.500;17.736;2022-09-09T10:24:07;9.73;;;7.83;;
3447;SDS011;1738;49.500;17.736;2022-09-09T10:26:32;14.87;;;8.47;;
3447;SDS011;1738;49.500;17.736;2022-09-09T10:29:04;9.77;;;8.77;;
3447;SDS011;1738;49.500;17.736;2022-09-09T10:31:35;10.90;;;8.50;;
3447;SDS011;1738;49.500;17.736;2022-09-09T10:34:08;8.10;;;7.07;;
3447;SDS011;1738;49.500;17.736;2022-09-09T10:36:29;8.25;;;5.90;;
3447;SDS011;1738;49.500;17.736;2022-09-09T10:38:59;8.23;;;6.30;;
3447;SDS011;1738;49.500;17.736;2022-09-09T10:44:06;5.83;;;5.00;;
3447;SDS011;1738;49.500;17.736;2022-09-09T10:46:35;4.90;;;3.73;;
3447;SDS011;1738;49.500;17.736;2022-09-09T10:51:43;5.70;;;4.30;;
3447;SDS011;1738;49.500;17.736;2022-09-09T10:54:14;6.23;;;3.70;;
3447;SDS011;1738;49.500;17.736;2022-09-09T10:56:37;5.23;;;3.10;;
3447;SDS011;1738;49.500;17.736;2022-09-09T10:59:07;7.63;;;3.30;;
3447;SDS011;1738;49.500;17.736;2022-09-09T11:01:49;4.70;;;3.37;;
3447;SDS011;1738;49.500;17.736;2022-09-09T11:04:15;3.33;;;2.63;;
3447;SDS011;1738;49.500;17.736;2022-09-09T11:06:40;6.20;;;3.67;;
3447;SDS011;1738;49.500;17.736;2022-09-09T11:09:05;5.83;;;3.60;;
3447;SDS011;1738;49.500;17.736;2022-09-09T11:11:37;4.83;;;3.10;;
3447;SDS011;1738;49.500;17.736;2022-09-09T11:14:03;4.50;;;3.50;;
3447;SDS011;1738;49.500;17.736;2022-09-09T11:16:29;7.18;;;3.47;;
3447;SDS011;1738;49.500;17.736;2022-09-09T11:18:58;5.47;;;3.70;;
3447;SDS011;1738;49.500;17.736;2022-09-09T11:21:23;5.47;;;3.80;;
3447;SDS011;1738;49.500;17.736;2022-09-09T11:23:50;3.77;;;2.90;;
3447;SDS011;1738;49.500;17.736;2022-09-09T11:26:17;4.37;;;3.10;;
3447;SDS011;1738;49.500;17.736;2022-09-09T11:29:01;6.17;;;2.20;;
3447;SDS011;1738;49.500;17.736;2022-09-09T11:31:32;4.50;;;2.57;;
3447;SDS011;1738;49.500;17.736;2022-09-09T11:34:13;5.10;;;2.77;;
3447;SDS011;1738;49.500;17.736;2022-09-09T11:36:38;4.20;;;2.63;;
3447;SDS011;1738;49.500;17.736;2022-09-09T11:39:03;5.30;;;3.00;;
3447;SDS011;1738;49.500;17.736;2022-09-09T11:41:32;4.13;;;2.70;;
3447;SDS011;1738;49.500;17.736;2022-09-09T11:43:52;6.70;;;2.47;;
3447;SDS011;1738;49.500;17.736;2022-09-09T11:46:21;6.17;;;3.00;;
3447;SDS011;1738;49.500;17.736;2022-09-09T11:49:03;5.97;;;2.60;;
3447;SDS011;1738;49.500;17.736;2022-09-09T11:51:28;4.67;;;2.70;;
3447;SDS011;1738;49.500;17.736;2022-09-09T11:53:55;5.03;;;2.37;;
3447;SDS011;1738;49.500;17.736;2022-09-09T11:56:28;6.63;;;2.67;;
3447;SDS011;1738;49.500;17.736;2022-09-09T11:58:56;4.30;;;2.20;;
3447;SDS011;1738;49.500;17.736;2022-09-09T12:01:27;5.93;;;2.40;;
3447;SDS011;1738;49.500;17.736;2022-09-09T12:03:51;4.40;;;2.00;;
3447;SDS011;1738;49.500;17.736;2022-09-09T12:06:17;3.80;;;2.17;;
3447;SDS011;1738;49.500;17.736;2022-09-09T12:08:45;3.80;;;2.00;;
3447;SDS011;1738;49.500;17.736;2022-09-09T12:11:09;2.63;;;1.70;;
3447;SDS011;1738;49.500;17.736;2022-09-09T12:13:35;4.20;;;1.90;;
3447;SDS011;1738;49.500;17.736;2022-09-09T12:16:01;8.10;;;2.30;;
3447;SDS011;1738;49.500;17.736;2022-09-09T12:18:32;3.20;;;1.90;;
3447;SDS011;1738;49.500;17.736;2022-09-09T12:21:03;5.00;;;1.77;;
3447;SDS011;1738;49.500;17.736;2022-09-09T12:23:33;4.50;;;1.97;;
3447;SDS011;1738;49.500;17.736;2022-09-09T12:28:50;3.40;;;1.40;;
3447;SDS011;1738;49.500;17.736;2022-09-09T12:31:22;2.93;;;1.50;;
3447;SDS011;1738;49.500;17.736;2022-09-09T12:33:46;5.40;;;1.63;;
3447;SDS011;1738;49.500;17.736;2022-09-09T12:36:13;4.00;;;1.63;;
3447;SDS011;1738;49.500;17.736;2022-09-09T12:38:39;4.37;;;1.93;;
3447;SDS011;1738;49.500;17.736;2022-09-09T12:41:04;4.33;;;1.40;;
3447;SDS011;1738;49.500;17.736;2022-09-09T12:43:30;2.80;;;1.10;;
3447;SDS011;1738;49.500;17.736;2022-09-09T12:45:57;7.13;;;1.70;;
3447;SDS011;1738;49.500;17.736;2022-09-09T12:48:22;3.63;;;1.80;;
3447;SDS011;1738;49.500;17.736;2022-09-09T12:50:48;2.57;;;1.30;;
3447;SDS011;1738;49.500;17.736;2022-09-09T12:53:17;3.47;;;1.40;;
3447;SDS011;1738;49.500;17.736;2022-09-09T12:55:48;3.70;;;1.73;;
3447;SDS011;1738;49.500;17.736;2022-09-09T12:58:05;2.57;;;1.57;;
3447;SDS011;1738;49.500;17.736;2022-09-09T13:00:31;2.83;;;1.30;;
3447;SDS011;1738;49.500;17.736;2022-09-09T13:02:58;4.20;;;1.70;;
3447;SDS011;1738;49.500;17.736;2022-09-09T13:05:24;3.13;;;1.30;;
3447;SDS011;1738;49.500;17.736;2022-09-09T13:07:49;3.40;;;2.00;;
3447;SDS011;1738;49.500;17.736;2022-09-09T13:10:15;2.80;;;1.50;;
3447;SDS011;1738;49.500;17.736;2022-09-09T13:12:40;3.50;;;1.33;;
3447;SDS011;1738;49.500;17.736;2022-09-09T13:15:10;3.47;;;1.33;;
3447;SDS011;1738;49.500;17.736;2022-09-09T13:17:32;4.67;;;1.80;;
3447;SDS011;1738;49.500;17.736;2022-09-09T13:19:58;5.03;;;2.07;;
3447;SDS011;1738;49.500;17.736;2022-09-09T13:22:29;2.53;;;1.80;;
3447;SDS011;1738;49.500;17.736;2022-09-09T13:24:58;2.97;;;1.57;;
3447;SDS011;1738;49.500;17.736;2022-09-09T13:27:28;4.13;;;1.77;;
3447;SDS011;1738;49.500;17.736;2022-09-09T13:29:53;4.53;;;1.80;;
3447;SDS011;1738;49.500;17.736;2022-09-09T13:32:19;3.95;;;1.83;;
3447;SDS011;1738;49.500;17.736;2022-09-09T13:34:50;6.47;;;1.57;;
3447;SDS011;1738;49.500;17.736;2022-09-09T13:37:19;3.70;;;2.00;;
3447;SDS011;1738;49.500;17.736;2022-09-09T13:39:50;2.63;;;1.47;;
3447;SDS011;1738;49.500;17.736;2022-09-09T13:42:19;4.73;;;2.17;;
3447;SDS011;1738;49.500;17.736;2022-09-09T13:44:35;3.80;;;1.70;;
3447;SDS011;1738;49.500;17.736;2022-09-09T13:47:01;4.63;;;1.80;;
3447;SDS011;1738;49.500;17.736;2022-09-09T13:49:27;6.80;;;2.17;;
3447;SDS011;1738;49.500;17.736;2022-09-09T13:52:02;3.30;;;1.73;;
3447;SDS011;1738;49.500;17.736;2022-09-09T13:54:18;3.00;;;1.80;;
3447;SDS011;1738;49.500;17.736;2022-09-09T13:56:44;5.13;;;1.70;;
3447;SDS011;1738;49.500;17.736;2022-09-09T13:59:13;4.87;;;1.63;;
3447;SDS011;1738;49.500;17.736;2022-09-09T14:01:37;3.97;;;1.80;;
3447;SDS011;1738;49.500;17.736;2022-09-09T14:04:03;3.70;;;2.07;;
3447;SDS011;1738;49.500;17.736;2022-09-09T14:06:29;4.77;;;1.73;;
3447;SDS011;1738;49.500;17.736;2022-09-09T14:08:55;3.27;;;2.10;;
3447;SDS011;1738;49.500;17.736;2022-09-09T14:11:21;3.80;;;1.90;;
3447;SDS011;1738;49.500;17.736;2022-09-09T14:13:47;5.73;;;1.80;;
3447;SDS011;1738;49.500;17.736;2022-09-09T14:16:12;5.67;;;2.37;;
3447;SDS011;1738;49.500;17.736;2022-09-09T14:18:38;2.70;;;1.60;;
3447;SDS011;1738;49.500;17.736;2022-09-09T14:21:04;5.17;;;1.90;;
3447;SDS011;1738;49.500;17.736;2022-09-09T14:23:30;3.67;;;1.80;;
3447;SDS011;1738;49.500;17.736;2022-09-09T14:25:56;6.30;;;3.20;;
3447;SDS011;1738;49.500;17.736;2022-09-09T14:28:22;2.60;;;1.70;;
3447;SDS011;1738;49.500;17.736;2022-09-09T14:30:47;2.90;;;1.60;;
3447;SDS011;1738;49.500;17.736;2022-09-09T14:33:14;3.33;;;2.03;;
3447;SDS011;1738;49.500;17.736;2022-09-09T14:35:39;5.15;;;1.80;;
3447;SDS011;1738;49.500;17.736;2022-09-09T14:38:05;3.60;;;1.90;;
3447;SDS011;1738;49.500;17.736;2022-09-09T14:40:31;3.73;;;2.40;;
3447;SDS011;1738;49.500;17.736;2022-09-09T14:42:57;4.57;;;1.80;;
3447;SDS011;1738;49.500;17.736;2022-09-09T14:45:23;4.60;;;1.40;;
3447;SDS011;1738;49.500;17.736;2022-09-09T14:47:49;3.90;;;1.57;;
3447;SDS011;1738;49.500;17.736;2022-09-09T14:50:15;2.67;;;1.40;;
3447;SDS011;1738;49.500;17.736;2022-09-09T14:52:41;3.63;;;1.90;;
3447;SDS011;1738;49.500;17.736;2022-09-09T14:55:07;4.80;;;2.30;;
3447;SDS011;1738;49.500;17.736;2022-09-09T14:57:33;5.17;;;3.00;;
3447;SDS011;1738;49.500;17.736;2022-09-09T14:59:59;4.27;;;2.00;;
3447;SDS011;1738;49.500;17.736;2022-09-09T15:02:25;5.10;;;1.87;;
3447;SDS011;1738;49.500;17.736;2022-09-09T15:04:51;3.67;;;1.80;;
3447;SDS011;1738;49.500;17.736;2022-09-09T15:07:17;3.33;;;2.13;;
3447;SDS011;1738;49.500;17.736;2022-09-09T15:09:42;3.70;;;2.20;;